Aeroporto :
LOGIN :

Iscrizione | Disclaimer

   EN    FR    IT 

 










Sommario :    VFR   VFR Marginale   IFR   IFR Intensivo   IFR Molto Intensivo
Visibilità : 
Base nubi : 
>= 8 km
>= 3000ft
5 / 8 km
1000 / 3000 ft
1500m / 5 km
500 / 1000 ft
800 / 1500m
200 / 500 ft
< 800m
< 200 ft
Simboli :   Temporali  Nebbia  Neve Forte  Precipitazioni Forti  Vento > 20 kt
SIGMETs :   Varie  Temporali  Ghiacco  Turbolenza  Onda orograficha  Ceneri Vulcaniche







- Altitudine del aeroporto : 129 ft
- Codice IATA : ZCN


ETHC - Celle

ULTIMO METAR :
  • 220520Z 27008KT 8000 -DZ BKN008 11/09 Q1014 GRN GRN TEMPO YLO

METARs OBSOLETI :
  • 220420Z 28007KT 8000 BKN009 11/09 Q1014 GRN GRN TEMPO YLO

TAF TAF ETHC
Valido dal 22 a 05 ore il 22 a 14 ore UTC


220415Z 2205/2214 29010KT 8000 NSW BKN007
TEMPO 2205/2208 29012G22KT 3500 -DZ BKN005
BECMG 2208/2210 29015G25KT 9999 NSW SCT010 BKN015
BECMG 2210/2212 30015G25KT 9999 NSW BKN025
Nessun NOTAM noto per questo aeroporto.



MetMap, La meteo Aeronautica in un colpo d'occhio ! - Copyright ORBIFLY Dicembre 2007 - Disclaimer

ORBIFLY MET'MAP TEAM :

Programmazione e sviluppo : Alexandra Zaïnal
Concezione e sviluppo : Baudouin d'Aumeries
Co-Programmazione e sviluppo : Marc-Olivier Méhu
Supporto tecnico e logistico : Manuel Goepfert
Aiuto per la traduzione : Arnaldo La Scala

Contatto : metmap@orbifly.com




FONTI E CREDITI :

   NOAA